sensor_id;sensor_type;location;lat;lon;timestamp;temperature;humidity
9389;DHT22;4734;52.778;6.798;2023-06-22T00:01:31;21.00;74.40
9389;DHT22;4734;52.778;6.798;2023-06-22T00:04:16;21.00;74.60
9389;DHT22;4734;52.778;6.798;2023-06-22T00:07:02;21.00;74.30
9389;DHT22;4734;52.778;6.798;2023-06-22T00:09:48;21.00;74.30
9389;DHT22;4734;52.778;6.798;2023-06-22T00:12:34;20.90;74.40
9389;DHT22;4734;52.778;6.798;2023-06-22T00:15:21;20.90;74.30
9389;DHT22;4734;52.778;6.798;2023-06-22T00:18:07;20.90;74.40
9389;DHT22;4734;52.778;6.798;2023-06-22T00:20:53;20.80;74.40
9389;DHT22;4734;52.778;6.798;2023-06-22T00:23:41;20.80;74.50
9389;DHT22;4734;52.778;6.798;2023-06-22T00:26:28;20.80;74.50
9389;DHT22;4734;52.778;6.798;2023-06-22T00:29:13;20.70;74.40
9389;DHT22;4734;52.778;6.798;2023-06-22T00:32:01;20.70;74.50
9389;DHT22;4734;52.778;6.798;2023-06-22T00:34:46;20.70;74.60
9389;DHT22;4734;52.778;6.798;2023-06-22T00:37:32;20.60;74.50
9389;DHT22;4734;52.778;6.798;2023-06-22T00:40:20;20.60;74.60
9389;DHT22;4734;52.778;6.798;2023-06-22T00:43:06;20.60;74.40
9389;DHT22;4734;52.778;6.798;2023-06-22T00:45:52;20.60;74.50
9389;DHT22;4734;52.778;6.798;2023-06-22T00:48:39;20.60;74.50
9389;DHT22;4734;52.778;6.798;2023-06-22T00:51:26;20.50;74.30
9389;DHT22;4734;52.778;6.798;2023-06-22T00:54:12;20.50;74.40
9389;DHT22;4734;52.778;6.798;2023-06-22T00:56:58;20.50;74.60
9389;DHT22;4734;52.778;6.798;2023-06-22T00:59:44;20.40;74.60
9389;DHT22;4734;52.778;6.798;2023-06-22T01:02:30;20.40;74.60
9389;DHT22;4734;52.778;6.798;2023-06-22T01:05:19;20.40;74.80
9389;DHT22;4734;52.778;6.798;2023-06-22T01:08:12;20.30;74.50
9389;DHT22;4734;52.778;6.798;2023-06-22T01:14:06;20.20;74.60
9389;DHT22;4734;52.778;6.798;2023-06-22T01:16:53;20.30;74.70
9389;DHT22;4734;52.778;6.798;2023-06-22T01:19:44;20.20;74.50
9389;DHT22;4734;52.778;6.798;2023-06-22T01:22:36;20.20;74.30
9389;DHT22;4734;52.778;6.798;2023-06-22T01:25:31;20.20;74.30
9389;DHT22;4734;52.778;6.798;2023-06-22T01:28:39;20.10;74.70
9389;DHT22;4734;52.778;6.798;2023-06-22T01:31:27;20.10;74.50
9389;DHT22;4734;52.778;6.798;2023-06-22T01:34:15;20.00;74.80
9389;DHT22;4734;52.778;6.798;2023-06-22T01:37:02;19.90;74.50
9389;DHT22;4734;52.778;6.798;2023-06-22T01:39:48;19.90;74.50
9389;DHT22;4734;52.778;6.798;2023-06-22T01:42:36;19.90;74.60
9389;DHT22;4734;52.778;6.798;2023-06-22T01:45:24;19.90;74.70
9389;DHT22;4734;52.778;6.798;2023-06-22T01:48:10;19.90;74.70
9389;DHT22;4734;52.778;6.798;2023-06-22T01:50:57;19.80;74.60
9389;DHT22;4734;52.778;6.798;2023-06-22T01:53:43;19.80;75.00
9389;DHT22;4734;52.778;6.798;2023-06-22T01:56:29;19.80;74.80
9389;DHT22;4734;52.778;6.798;2023-06-22T01:59:22;19.80;74.70
9389;DHT22;4734;52.778;6.798;2023-06-22T02:02:15;19.70;74.60
9389;DHT22;4734;52.778;6.798;2023-06-22T02:05:05;19.70;74.60
9389;DHT22;4734;52.778;6.798;2023-06-22T02:08:00;19.60;74.50
9389;DHT22;4734;52.778;6.798;2023-06-22T02:10:48;19.60;74.60
9389;DHT22;4734;52.778;6.798;2023-06-22T02:13:36;19.60;74.70
9389;DHT22;4734;52.778;6.798;2023-06-22T02:16:27;19.60;74.60
9389;DHT22;4734;52.778;6.798;2023-06-22T02:19:15;19.60;74.90
9389;DHT22;4734;52.778;6.798;2023-06-22T02:22:03;19.50;74.70
9389;DHT22;4734;52.778;6.798;2023-06-22T02:24:49;19.50;74.70
9389;DHT22;4734;52.778;6.798;2023-06-22T02:27:35;19.40;74.60
9389;DHT22;4734;52.778;6.798;2023-06-22T02:30:24;19.40;74.40
9389;DHT22;4734;52.778;6.798;2023-06-22T02:33:10;19.40;74.80
9389;DHT22;4734;52.778;6.798;2023-06-22T02:35:58;19.40;74.70
9389;DHT22;4734;52.778;6.798;2023-06-22T02:38:44;19.40;74.80
9389;DHT22;4734;52.778;6.798;2023-06-22T02:41:32;19.30;74.70
9389;DHT22;4734;52.778;6.798;2023-06-22T02:44:19;19.30;74.70
9389;DHT22;4734;52.778;6.798;2023-06-22T02:47:05;19.30;74.80
9389;DHT22;4734;52.778;6.798;2023-06-22T02:49:51;19.20;74.70
9389;DHT22;4734;52.778;6.798;2023-06-22T02:52:38;19.20;74.60
9389;DHT22;4734;52.778;6.798;2023-06-22T02:55:24;19.20;74.70
9389;DHT22;4734;52.778;6.798;2023-06-22T02:58:11;19.10;74.70
9389;DHT22;4734;52.778;6.798;2023-06-22T03:00:56;19.10;74.70
9389;DHT22;4734;52.778;6.798;2023-06-22T03:03:42;19.10;74.90
9389;DHT22;4734;52.778;6.798;2023-06-22T03:06:28;19.00;74.50
9389;DHT22;4734;52.778;6.798;2023-06-22T03:09:16;19.00;74.50
9389;DHT22;4734;52.778;6.798;2023-06-22T03:12:03;19.00;74.70
9389;DHT22;4734;52.778;6.798;2023-06-22T03:14:48;19.00;74.60
9389;DHT22;4734;52.778;6.798;2023-06-22T03:17:35;19.00;74.60
9389;DHT22;4734;52.778;6.798;2023-06-22T03:20:20;19.00;74.70
9389;DHT22;4734;52.778;6.798;2023-06-22T03:23:06;18.90;74.50
9389;DHT22;4734;52.778;6.798;2023-06-22T03:25:53;18.90;74.60
9389;DHT22;4734;52.778;6.798;2023-06-22T03:28:40;18.90;74.60
9389;DHT22;4734;52.778;6.798;2023-06-22T03:31:26;18.80;74.50
9389;DHT22;4734;52.778;6.798;2023-06-22T03:34:12;18.90;74.60
9389;DHT22;4734;52.778;6.798;2023-06-22T03:36:58;18.80;74.40
9389;DHT22;4734;52.778;6.798;2023-06-22T03:39:45;18.80;74.30
9389;DHT22;4734;52.778;6.798;2023-06-22T03:42:35;18.80;74.30
9389;DHT22;4734;52.778;6.798;2023-06-22T03:45:21;18.80;74.20
9389;DHT22;4734;52.778;6.798;2023-06-22T03:48:07;18.80;74.20
9389;DHT22;4734;52.778;6.798;2023-06-22T03:50:53;18.80;74.20
9389;DHT22;4734;52.778;6.798;2023-06-22T03:53:39;18.80;74.30
9389;DHT22;4734;52.778;6.798;2023-06-22T03:56:25;18.70;74.10
9389;DHT22;4734;52.778;6.798;2023-06-22T03:59:12;18.80;74.20
9389;DHT22;4734;52.778;6.798;2023-06-22T04:01:58;18.70;74.10
9389;DHT22;4734;52.778;6.798;2023-06-22T04:04:43;18.70;74.00
9389;DHT22;4734;52.778;6.798;2023-06-22T04:07:29;18.70;74.20
9389;DHT22;4734;52.778;6.798;2023-06-22T04:10:15;18.70;74.00
9389;DHT22;4734;52.778;6.798;2023-06-22T04:13:00;18.70;74.00
9389;DHT22;4734;52.778;6.798;2023-06-22T04:15:48;18.60;73.80
9389;DHT22;4734;52.778;6.798;2023-06-22T04:18:34;18.70;74.10
9389;DHT22;4734;52.778;6.798;2023-06-22T04:21:20;18.60;73.90
9389;DHT22;4734;52.778;6.798;2023-06-22T04:24:06;18.70;73.90
9389;DHT22;4734;52.778;6.798;2023-06-22T04:26:52;18.70;74.00
9389;DHT22;4734;52.778;6.798;2023-06-22T04:29:38;18.70;74.00
9389;DHT22;4734;52.778;6.798;2023-06-22T04:32:34;18.60;73.70
9389;DHT22;4734;52.778;6.798;2023-06-22T04:35:21;18.60;73.80
9389;DHT22;4734;52.778;6.798;2023-06-22T04:38:07;18.60;73.60
9389;DHT22;4734;52.778;6.798;2023-06-22T04:40:54;18.60;73.60
9389;DHT22;4734;52.778;6.798;2023-06-22T04:43:39;18.60;73.60
9389;DHT22;4734;52.778;6.798;2023-06-22T04:46:25;18.60;73.60
9389;DHT22;4734;52.778;6.798;2023-06-22T04:49:12;18.60;73.60
9389;DHT22;4734;52.778;6.798;2023-06-22T04:51:59;17.90;84.30
9389;DHT22;4734;52.778;6.798;2023-06-22T04:54:44;18.60;73.60
9389;DHT22;4734;52.778;6.798;2023-06-22T04:57:34;18.60;73.50
9389;DHT22;4734;52.778;6.798;2023-06-22T05:00:20;18.60;73.50
9389;DHT22;4734;52.778;6.798;2023-06-22T05:03:07;18.60;73.30
9389;DHT22;4734;52.778;6.798;2023-06-22T05:05:56;18.60;73.30
9389;DHT22;4734;52.778;6.798;2023-06-22T05:08:42;18.60;73.40
9389;DHT22;4734;52.778;6.798;2023-06-22T05:11:28;18.60;73.30
9389;DHT22;4734;52.778;6.798;2023-06-22T05:14:14;18.70;73.40
9389;DHT22;4734;52.778;6.798;2023-06-22T05:17:00;18.70;73.50
9389;DHT22;4734;52.778;6.798;2023-06-22T05:19:48;18.70;73.40
9389;DHT22;4734;52.778;6.798;2023-06-22T05:22:35;18.70;73.40
9389;DHT22;4734;52.778;6.798;2023-06-22T05:25:21;18.70;73.40
9389;DHT22;4734;52.778;6.798;2023-06-22T05:28:07;18.70;73.30
9389;DHT22;4734;52.778;6.798;2023-06-22T05:30:55;18.80;73.50
9389;DHT22;4734;52.778;6.798;2023-06-22T05:33:42;18.80;73.40
9389;DHT22;4734;52.778;6.798;2023-06-22T05:36:28;18.80;73.30
9389;DHT22;4734;52.778;6.798;2023-06-22T05:39:15;18.90;73.40
9389;DHT22;4734;52.778;6.798;2023-06-22T05:42:01;18.90;73.70
9389;DHT22;4734;52.778;6.798;2023-06-22T05:44:47;18.90;73.30
9389;DHT22;4734;52.778;6.798;2023-06-22T05:47:32;19.00;73.40
9389;DHT22;4734;52.778;6.798;2023-06-22T05:50:18;19.00;73.40
9389;DHT22;4734;52.778;6.798;2023-06-22T05:53:04;19.00;73.40
9389;DHT22;4734;52.778;6.798;2023-06-22T05:55:52;19.10;73.60
9389;DHT22;4734;52.778;6.798;2023-06-22T05:58:38;19.20;73.60
9389;DHT22;4734;52.778;6.798;2023-06-22T06:01:23;19.20;73.70
9389;DHT22;4734;52.778;6.798;2023-06-22T06:04:10;19.20;73.80
9389;DHT22;4734;52.778;6.798;2023-06-22T06:06:56;19.20;73.70
9389;DHT22;4734;52.778;6.798;2023-06-22T06:09:42;19.30;73.90
9389;DHT22;4734;52.778;6.798;2023-06-22T06:12:29;19.40;73.80
9389;DHT22;4734;52.778;6.798;2023-06-22T06:15:14;19.40;74.20
9389;DHT22;4734;52.778;6.798;2023-06-22T06:18:01;19.40;74.40
9389;DHT22;4734;52.778;6.798;2023-06-22T06:20:49;19.50;74.50
9389;DHT22;4734;52.778;6.798;2023-06-22T06:23:34;19.60;74.80
9389;DHT22;4734;52.778;6.798;2023-06-22T06:26:20;19.60;75.00
9389;DHT22;4734;52.778;6.798;2023-06-22T06:29:15;19.70;75.20
9389;DHT22;4734;52.778;6.798;2023-06-22T06:32:01;19.80;75.00
9389;DHT22;4734;52.778;6.798;2023-06-22T06:34:48;19.80;75.20
9389;DHT22;4734;52.778;6.798;2023-06-22T06:37:35;19.90;75.40
9389;DHT22;4734;52.778;6.798;2023-06-22T06:40:21;20.00;75.80
9389;DHT22;4734;52.778;6.798;2023-06-22T06:43:07;20.10;75.90
9389;DHT22;4734;52.778;6.798;2023-06-22T06:45:54;20.30;76.30
9389;DHT22;4734;52.778;6.798;2023-06-22T06:48:39;20.40;76.50
9389;DHT22;4734;52.778;6.798;2023-06-22T06:51:25;20.40;76.20
9389;DHT22;4734;52.778;6.798;2023-06-22T06:54:10;20.60;76.50
9389;DHT22;4734;52.778;6.798;2023-06-22T06:56:56;20.70;76.20
9389;DHT22;4734;52.778;6.798;2023-06-22T06:59:42;20.80;76.40
9389;DHT22;4734;52.778;6.798;2023-06-22T07:02:29;20.90;76.20
9389;DHT22;4734;52.778;6.798;2023-06-22T07:05:15;21.00;76.20
9389;DHT22;4734;52.778;6.798;2023-06-22T07:08:00;21.10;77.00
9389;DHT22;4734;52.778;6.798;2023-06-22T07:10:46;21.20;76.40
9389;DHT22;4734;52.778;6.798;2023-06-22T07:13:32;21.30;76.30
9389;DHT22;4734;52.778;6.798;2023-06-22T07:16:18;21.40;77.10
9389;DHT22;4734;52.778;6.798;2023-06-22T07:19:05;21.50;76.50
9389;DHT22;4734;52.778;6.798;2023-06-22T07:21:51;21.60;76.70
9389;DHT22;4734;52.778;6.798;2023-06-22T07:24:38;21.70;76.10
9389;DHT22;4734;52.778;6.798;2023-06-22T07:27:24;21.80;77.00
9389;DHT22;4734;52.778;6.798;2023-06-22T07:30:10;22.00;76.50
9389;DHT22;4734;52.778;6.798;2023-06-22T07:32:57;22.10;76.70
9389;DHT22;4734;52.778;6.798;2023-06-22T07:35:50;22.20;77.10
9389;DHT22;4734;52.778;6.798;2023-06-22T07:38:36;22.40;77.80
9389;DHT22;4734;52.778;6.798;2023-06-22T07:41:22;22.50;77.50
9389;DHT22;4734;52.778;6.798;2023-06-22T07:44:08;22.60;78.00
9389;DHT22;4734;52.778;6.798;2023-06-22T07:46:54;22.70;77.30
9389;DHT22;4734;52.778;6.798;2023-06-22T07:49:40;22.90;77.40
9389;DHT22;4734;52.778;6.798;2023-06-22T07:52:27;23.00;77.40
9389;DHT22;4734;52.778;6.798;2023-06-22T07:55:13;23.20;77.70
9389;DHT22;4734;52.778;6.798;2023-06-22T07:57:59;23.30;77.80
9389;DHT22;4734;52.778;6.798;2023-06-22T08:00:44;23.40;77.80
9389;DHT22;4734;52.778;6.798;2023-06-22T08:03:30;23.50;77.90
9389;DHT22;4734;52.778;6.798;2023-06-22T08:06:16;23.70;77.70
9389;DHT22;4734;52.778;6.798;2023-06-22T08:09:03;23.80;77.80
9389;DHT22;4734;52.778;6.798;2023-06-22T08:11:49;24.00;78.30
9389;DHT22;4734;52.778;6.798;2023-06-22T08:14:37;24.10;78.10
9389;DHT22;4734;52.778;6.798;2023-06-22T08:17:22;24.30;78.30
9389;DHT22;4734;52.778;6.798;2023-06-22T08:20:09;24.40;77.70
9389;DHT22;4734;52.778;6.798;2023-06-22T08:22:56;24.50;77.90
9389;DHT22;4734;52.778;6.798;2023-06-22T08:25:44;24.70;78.00
9389;DHT22;4734;52.778;6.798;2023-06-22T08:28:29;24.80;78.10
9389;DHT22;4734;52.778;6.798;2023-06-22T08:31:15;25.00;78.40
9389;DHT22;4734;52.778;6.798;2023-06-22T08:34:01;25.10;77.80
9389;DHT22;4734;52.778;6.798;2023-06-22T08:36:47;25.30;78.40
9389;DHT22;4734;52.778;6.798;2023-06-22T08:39:36;25.40;77.60
9389;DHT22;4734;52.778;6.798;2023-06-22T08:42:24;25.50;77.70
9389;DHT22;4734;52.778;6.798;2023-06-22T08:45:10;25.70;77.60
9389;DHT22;4734;52.778;6.798;2023-06-22T08:47:56;25.80;77.50
9389;DHT22;4734;52.778;6.798;2023-06-22T08:50:42;26.00;77.20
9389;DHT22;4734;52.778;6.798;2023-06-22T08:53:28;26.10;76.60
9389;DHT22;4734;52.778;6.798;2023-06-22T08:56:13;26.20;76.40
9389;DHT22;4734;52.778;6.798;2023-06-22T08:59:00;26.40;77.00
9389;DHT22;4734;52.778;6.798;2023-06-22T09:01:46;26.50;77.30
9389;DHT22;4734;52.778;6.798;2023-06-22T09:04:32;26.60;76.80
9389;DHT22;4734;52.778;6.798;2023-06-22T09:07:18;26.80;77.00
9389;DHT22;4734;52.778;6.798;2023-06-22T09:10:07;26.90;76.40
9389;DHT22;4734;52.778;6.798;2023-06-22T09:12:53;27.00;75.90
9389;DHT22;4734;52.778;6.798;2023-06-22T09:15:40;27.20;76.30
9389;DHT22;4734;52.778;6.798;2023-06-22T09:18:25;27.30;77.10
9389;DHT22;4734;52.778;6.798;2023-06-22T09:21:11;27.50;76.80
9389;DHT22;4734;52.778;6.798;2023-06-22T09:23:56;27.60;76.10
9389;DHT22;4734;52.778;6.798;2023-06-22T09:26:42;27.70;75.90
9389;DHT22;4734;52.778;6.798;2023-06-22T09:29:27;27.90;75.40
9389;DHT22;4734;52.778;6.798;2023-06-22T09:32:14;27.90;75.40
9389;DHT22;4734;52.778;6.798;2023-06-22T09:35:04;28.10;75.60
9389;DHT22;4734;52.778;6.798;2023-06-22T09:37:51;28.20;75.10
9389;DHT22;4734;52.778;6.798;2023-06-22T09:40:36;28.30;76.60
9389;DHT22;4734;52.778;6.798;2023-06-22T09:43:24;28.50;76.30
9389;DHT22;4734;52.778;6.798;2023-06-22T09:46:10;28.60;75.20
9389;DHT22;4734;52.778;6.798;2023-06-22T09:48:57;28.70;74.50
9389;DHT22;4734;52.778;6.798;2023-06-22T09:51:43;28.80;75.50
9389;DHT22;4734;52.778;6.798;2023-06-22T09:54:28;29.00;74.60
9389;DHT22;4734;52.778;6.798;2023-06-22T09:57:14;29.10;74.00
9389;DHT22;4734;52.778;6.798;2023-06-22T10:00:00;29.20;73.60
9389;DHT22;4734;52.778;6.798;2023-06-22T10:02:46;29.30;73.50
9389;DHT22;4734;52.778;6.798;2023-06-22T10:05:33;29.30;73.60
9389;DHT22;4734;52.778;6.798;2023-06-22T10:08:19;29.40;72.90
9389;DHT22;4734;52.778;6.798;2023-06-22T10:11:05;29.50;73.20
9389;DHT22;4734;52.778;6.798;2023-06-22T10:13:51;29.60;72.90
9389;DHT22;4734;52.778;6.798;2023-06-22T10:16:36;29.60;72.80
9389;DHT22;4734;52.778;6.798;2023-06-22T10:19:22;29.70;72.40
9389;DHT22;4734;52.778;6.798;2023-06-22T10:22:10;29.80;71.70
9389;DHT22;4734;52.778;6.798;2023-06-22T10:24:59;29.80;72.30
9389;DHT22;4734;52.778;6.798;2023-06-22T10:27:45;29.90;71.80
9389;DHT22;4734;52.778;6.798;2023-06-22T10:30:32;29.90;71.40
9389;DHT22;4734;52.778;6.798;2023-06-22T10:33:19;30.10;72.00
9389;DHT22;4734;52.778;6.798;2023-06-22T10:36:05;30.10;71.70
9389;DHT22;4734;52.778;6.798;2023-06-22T10:38:54;30.20;70.90
9389;DHT22;4734;52.778;6.798;2023-06-22T10:41:40;30.30;72.10
9389;DHT22;4734;52.778;6.798;2023-06-22T10:44:29;30.40;70.70
9389;DHT22;4734;52.778;6.798;2023-06-22T10:47:15;30.50;70.70
9389;DHT22;4734;52.778;6.798;2023-06-22T10:50:03;30.60;70.60
9389;DHT22;4734;52.778;6.798;2023-06-22T10:52:49;30.70;70.20
9389;DHT22;4734;52.778;6.798;2023-06-22T10:55:36;30.80;71.20
9389;DHT22;4734;52.778;6.798;2023-06-22T10:58:22;30.90;70.90
9389;DHT22;4734;52.778;6.798;2023-06-22T11:01:11;31.00;70.20
9389;DHT22;4734;52.778;6.798;2023-06-22T11:03:57;31.20;70.30
9389;DHT22;4734;52.778;6.798;2023-06-22T11:06:43;31.30;69.70
9389;DHT22;4734;52.778;6.798;2023-06-22T11:09:29;31.40;69.50
9389;DHT22;4734;52.778;6.798;2023-06-22T11:12:18;31.40;69.00
9389;DHT22;4734;52.778;6.798;2023-06-22T11:15:08;31.50;69.60
9389;DHT22;4734;52.778;6.798;2023-06-22T11:17:55;31.60;68.90
9389;DHT22;4734;52.778;6.798;2023-06-22T11:20:46;31.60;68.90
9389;DHT22;4734;52.778;6.798;2023-06-22T11:23:41;31.70;69.60
9389;DHT22;4734;52.778;6.798;2023-06-22T11:26:28;31.60;69.40
9389;DHT22;4734;52.778;6.798;2023-06-22T11:29:22;31.70;69.00
9389;DHT22;4734;52.778;6.798;2023-06-22T11:32:11;31.70;69.70
9389;DHT22;4734;52.778;6.798;2023-06-22T11:34:58;31.70;68.50
9389;DHT22;4734;52.778;6.798;2023-06-22T11:37:44;31.60;68.70
9389;DHT22;4734;52.778;6.798;2023-06-22T11:40:34;31.50;68.70
9389;DHT22;4734;52.778;6.798;2023-06-22T11:43:23;31.50;68.30
9389;DHT22;4734;52.778;6.798;2023-06-22T11:46:23;31.40;68.50
9389;DHT22;4734;52.778;6.798;2023-06-22T11:49:11;31.40;68.80
9389;DHT22;4734;52.778;6.798;2023-06-22T11:51:58;31.30;68.80
9389;DHT22;4734;52.778;6.798;2023-06-22T11:54:48;31.20;68.80
9389;DHT22;4734;52.778;6.798;2023-06-22T11:57:37;31.20;69.50
9389;DHT22;4734;52.778;6.798;2023-06-22T12:00:24;31.10;69.00
9389;DHT22;4734;52.778;6.798;2023-06-22T12:03:12;31.00;68.80
9389;DHT22;4734;52.778;6.798;2023-06-22T12:06:01;31.00;69.00
9389;DHT22;4734;52.778;6.798;2023-06-22T12:08:47;31.00;68.90
9389;DHT22;4734;52.778;6.798;2023-06-22T12:11:33;30.90;69.00
9389;DHT22;4734;52.778;6.798;2023-06-22T12:14:19;30.90;69.50
9389;DHT22;4734;52.778;6.798;2023-06-22T12:17:05;30.90;69.90
9389;DHT22;4734;52.778;6.798;2023-06-22T12:19:52;30.80;69.70
9389;DHT22;4734;52.778;6.798;2023-06-22T12:22:37;30.80;69.70
9389;DHT22;4734;52.778;6.798;2023-06-22T12:25:23;30.80;71.80
9389;DHT22;4734;52.778;6.798;2023-06-22T12:28:08;30.80;70.90
9389;DHT22;4734;52.778;6.798;2023-06-22T12:30:54;30.80;70.10
9389;DHT22;4734;52.778;6.798;2023-06-22T12:33:40;30.80;70.30
9389;DHT22;4734;52.778;6.798;2023-06-22T12:36:27;30.80;69.90
9389;DHT22;4734;52.778;6.798;2023-06-22T12:39:12;30.80;69.50
9389;DHT22;4734;52.778;6.798;2023-06-22T12:41:57;30.70;68.90
9389;DHT22;4734;52.778;6.798;2023-06-22T12:44:43;30.70;68.50
9389;DHT22;4734;52.778;6.798;2023-06-22T12:47:29;30.70;68.00
9389;DHT22;4734;52.778;6.798;2023-06-22T12:50:15;30.60;67.90
9389;DHT22;4734;52.778;6.798;2023-06-22T12:53:02;30.60;68.20
9389;DHT22;4734;52.778;6.798;2023-06-22T12:55:48;30.50;68.10
9389;DHT22;4734;52.778;6.798;2023-06-22T12:58:33;30.50;68.30
9389;DHT22;4734;52.778;6.798;2023-06-22T13:01:19;30.40;68.20
9389;DHT22;4734;52.778;6.798;2023-06-22T13:04:05;30.40;68.40
9389;DHT22;4734;52.778;6.798;2023-06-22T13:06:51;30.30;67.80
9389;DHT22;4734;52.778;6.798;2023-06-22T13:09:38;30.20;67.50
9389;DHT22;4734;52.778;6.798;2023-06-22T13:12:24;30.10;67.50
9389;DHT22;4734;52.778;6.798;2023-06-22T13:15:09;30.00;67.70
9389;DHT22;4734;52.778;6.798;2023-06-22T13:17:55;29.90;67.80
9389;DHT22;4734;52.778;6.798;2023-06-22T13:20:41;29.90;68.20
9389;DHT22;4734;52.778;6.798;2023-06-22T13:23:29;29.80;68.70
9389;DHT22;4734;52.778;6.798;2023-06-22T13:26:17;29.70;69.00
9389;DHT22;4734;52.778;6.798;2023-06-22T13:29:02;29.50;69.10
9389;DHT22;4734;52.778;6.798;2023-06-22T13:31:48;29.40;69.20
9389;DHT22;4734;52.778;6.798;2023-06-22T13:34:34;29.40;69.30
9389;DHT22;4734;52.778;6.798;2023-06-22T13:37:21;29.30;69.20
9389;DHT22;4734;52.778;6.798;2023-06-22T13:40:08;29.20;69.30
9389;DHT22;4734;52.778;6.798;2023-06-22T13:42:55;29.10;69.50
9389;DHT22;4734;52.778;6.798;2023-06-22T13:45:41;29.00;69.60
9389;DHT22;4734;52.778;6.798;2023-06-22T13:48:26;29.00;70.00
9389;DHT22;4734;52.778;6.798;2023-06-22T13:51:12;28.90;70.50
9389;DHT22;4734;52.778;6.798;2023-06-22T13:53:58;28.80;70.80
9389;DHT22;4734;52.778;6.798;2023-06-22T13:56:43;28.70;71.30
9389;DHT22;4734;52.778;6.798;2023-06-22T13:59:30;28.70;71.70
9389;DHT22;4734;52.778;6.798;2023-06-22T14:02:16;28.60;72.00
9389;DHT22;4734;52.778;6.798;2023-06-22T14:05:02;28.60;72.40
9389;DHT22;4734;52.778;6.798;2023-06-22T14:07:47;28.50;72.70
9389;DHT22;4734;52.778;6.798;2023-06-22T14:10:36;28.50;73.30
9389;DHT22;4734;52.778;6.798;2023-06-22T14:13:25;28.40;73.50
9389;DHT22;4734;52.778;6.798;2023-06-22T14:16:12;28.40;73.90
9389;DHT22;4734;52.778;6.798;2023-06-22T14:18:58;28.30;74.20
9389;DHT22;4734;52.778;6.798;2023-06-22T14:21:44;28.30;75.10
9389;DHT22;4734;52.778;6.798;2023-06-22T14:24:29;28.20;74.50
9389;DHT22;4734;52.778;6.798;2023-06-22T14:27:15;28.20;74.70
9389;DHT22;4734;52.778;6.798;2023-06-22T14:30:01;28.10;74.70
9389;DHT22;4734;52.778;6.798;2023-06-22T14:32:48;28.00;75.70
9389;DHT22;4734;52.778;6.798;2023-06-22T14:35:33;28.00;75.50
9389;DHT22;4734;52.778;6.798;2023-06-22T14:38:19;28.00;75.50
9389;DHT22;4734;52.778;6.798;2023-06-22T14:41:05;27.90;75.80
9389;DHT22;4734;52.778;6.798;2023-06-22T14:43:51;27.80;75.30
9389;DHT22;4734;52.778;6.798;2023-06-22T14:46:36;27.70;75.30
9389;DHT22;4734;52.778;6.798;2023-06-22T14:49:24;27.70;75.00
9389;DHT22;4734;52.778;6.798;2023-06-22T14:52:09;27.60;74.90
9389;DHT22;4734;52.778;6.798;2023-06-22T14:54:55;27.50;74.90
9389;DHT22;4734;52.778;6.798;2023-06-22T14:57:41;27.50;75.30
9389;DHT22;4734;52.778;6.798;2023-06-22T15:00:26;27.40;76.10
9389;DHT22;4734;52.778;6.798;2023-06-22T15:03:12;27.30;75.80
9389;DHT22;4734;52.778;6.798;2023-06-22T15:06:03;27.20;76.00
9389;DHT22;4734;52.778;6.798;2023-06-22T15:08:49;27.20;76.30
9389;DHT22;4734;52.778;6.798;2023-06-22T15:11:35;27.00;75.80
9389;DHT22;4734;52.778;6.798;2023-06-22T15:14:20;27.00;76.70
9389;DHT22;4734;52.778;6.798;2023-06-22T15:17:06;26.90;77.00
9389;DHT22;4734;52.778;6.798;2023-06-22T15:19:53;26.80;77.20
9389;DHT22;4734;52.778;6.798;2023-06-22T15:22:40;26.70;77.80
9389;DHT22;4734;52.778;6.798;2023-06-22T15:25:26;26.60;78.50
9389;DHT22;4734;52.778;6.798;2023-06-22T15:28:11;26.50;78.60
9389;DHT22;4734;52.778;6.798;2023-06-22T15:30:57;26.40;79.00
9389;DHT22;4734;52.778;6.798;2023-06-22T15:33:43;26.30;79.30
9389;DHT22;4734;52.778;6.798;2023-06-22T15:36:29;26.20;79.70
9389;DHT22;4734;52.778;6.798;2023-06-22T15:39:16;26.10;80.00
9389;DHT22;4734;52.778;6.798;2023-06-22T15:42:01;26.00;80.40
9389;DHT22;4734;52.778;6.798;2023-06-22T15:44:47;25.90;81.10
9389;DHT22;4734;52.778;6.798;2023-06-22T15:47:32;25.70;81.10
9389;DHT22;4734;52.778;6.798;2023-06-22T15:50:18;25.60;82.00
9389;DHT22;4734;52.778;6.798;2023-06-22T15:53:04;25.50;82.50
9389;DHT22;4734;52.778;6.798;2023-06-22T15:55:51;25.40;82.50
9389;DHT22;4734;52.778;6.798;2023-06-22T15:58:38;25.30;83.10
9389;DHT22;4734;52.778;6.798;2023-06-22T16:01:24;25.20;83.50
9389;DHT22;4734;52.778;6.798;2023-06-22T16:04:10;25.10;83.50
9389;DHT22;4734;52.778;6.798;2023-06-22T16:06:56;25.00;83.90
9389;DHT22;4734;52.778;6.798;2023-06-22T16:09:41;24.90;84.30
9389;DHT22;4734;52.778;6.798;2023-06-22T16:12:29;24.80;84.30
9389;DHT22;4734;52.778;6.798;2023-06-22T16:15:15;24.70;84.80
9389;DHT22;4734;52.778;6.798;2023-06-22T16:18:00;24.60;85.10
9389;DHT22;4734;52.778;6.798;2023-06-22T16:20:46;24.50;85.30
9389;DHT22;4734;52.778;6.798;2023-06-22T16:23:32;24.40;85.30
9389;DHT22;4734;52.778;6.798;2023-06-22T16:26:18;24.30;85.60
9389;DHT22;4734;52.778;6.798;2023-06-22T16:29:05;24.30;86.00
9389;DHT22;4734;52.778;6.798;2023-06-22T16:31:50;24.20;85.80
9389;DHT22;4734;52.778;6.798;2023-06-22T16:34:36;24.10;86.60
9389;DHT22;4734;52.778;6.798;2023-06-22T16:37:22;24.00;86.70
9389;DHT22;4734;52.778;6.798;2023-06-22T16:40:09;23.90;86.90
9389;DHT22;4734;52.778;6.798;2023-06-22T16:42:57;23.80;88.60
9389;DHT22;4734;52.778;6.798;2023-06-22T16:45:45;23.80;87.90
9389;DHT22;4734;52.778;6.798;2023-06-22T16:48:30;23.70;88.10
9389;DHT22;4734;52.778;6.798;2023-06-22T16:51:15;23.70;88.40
9389;DHT22;4734;52.778;6.798;2023-06-22T16:54:02;23.60;88.50
9389;DHT22;4734;52.778;6.798;2023-06-22T16:56:47;23.50;88.70
9389;DHT22;4734;52.778;6.798;2023-06-22T16:59:33;23.50;89.00
9389;DHT22;4734;52.778;6.798;2023-06-22T17:02:23;23.40;88.90
9389;DHT22;4734;52.778;6.798;2023-06-22T17:05:09;23.30;89.70
9389;DHT22;4734;52.778;6.798;2023-06-22T17:07:59;23.30;89.90
9389;DHT22;4734;52.778;6.798;2023-06-22T17:10:47;23.20;90.00
9389;DHT22;4734;52.778;6.798;2023-06-22T17:13:34;23.20;90.20
9389;DHT22;4734;52.778;6.798;2023-06-22T17:16:20;23.20;90.00
9389;DHT22;4734;52.778;6.798;2023-06-22T17:19:09;23.10;90.20
9389;DHT22;4734;52.778;6.798;2023-06-22T17:21:55;23.10;90.20
9389;DHT22;4734;52.778;6.798;2023-06-22T17:24:41;23.00;90.20
9389;DHT22;4734;52.778;6.798;2023-06-22T17:27:27;22.90;90.20
9389;DHT22;4734;52.778;6.798;2023-06-22T17:30:13;22.90;90.30
9389;DHT22;4734;52.778;6.798;2023-06-22T17:33:01;22.80;90.30
9389;DHT22;4734;52.778;6.798;2023-06-22T17:35:49;22.70;90.20
9389;DHT22;4734;52.778;6.798;2023-06-22T17:38:36;22.70;90.40
9389;DHT22;4734;52.778;6.798;2023-06-22T17:41:22;22.60;90.50
9389;DHT22;4734;52.778;6.798;2023-06-22T17:44:07;22.50;90.50
9389;DHT22;4734;52.778;6.798;2023-06-22T17:46:54;22.50;90.50
9389;DHT22;4734;52.778;6.798;2023-06-22T17:49:40;22.40;90.60
9389;DHT22;4734;52.778;6.798;2023-06-22T17:52:27;22.40;90.60
9389;DHT22;4734;52.778;6.798;2023-06-22T17:55:12;22.30;90.60
9389;DHT22;4734;52.778;6.798;2023-06-22T17:57:58;22.30;90.50
9389;DHT22;4734;52.778;6.798;2023-06-22T18:00:47;22.30;90.60
9389;DHT22;4734;52.778;6.798;2023-06-22T18:03:33;22.20;90.40
9389;DHT22;4734;52.778;6.798;2023-06-22T18:06:20;22.20;90.40
9389;DHT22;4734;52.778;6.798;2023-06-22T18:09:09;22.10;90.40
9389;DHT22;4734;52.778;6.798;2023-06-22T18:11:58;22.10;90.50